sensor_id;sensor_type;location;lat;lon;timestamp;pressure;altitude;pressure_sealevel;temperature;humidity
63568;BME280;49715;42.386;20.434;2023-02-22T00:01:28;97482.09;;;8.80;45.67
63568;BME280;49715;42.386;20.434;2023-02-22T00:04:05;97487.91;;;8.64;45.88
63568;BME280;49715;42.386;20.434;2023-02-22T00:06:32;97482.22;;;8.49;46.21
63568;BME280;49715;42.386;20.434;2023-02-22T00:08:59;97476.94;;;8.40;46.18
63568;BME280;49715;42.386;20.434;2023-02-22T00:11:27;97476.88;;;8.30;46.37
63568;BME280;49715;42.386;20.434;2023-02-22T00:13:56;97478.81;;;8.28;46.35
63568;BME280;49715;42.386;20.434;2023-02-22T00:16:23;97473.69;;;8.17;46.64
63568;BME280;49715;42.386;20.434;2023-02-22T00:18:51;97480.28;;;8.11;46.71
63568;BME280;49715;42.386;20.434;2023-02-22T00:21:18;97483.19;;;8.08;46.67
63568;BME280;49715;42.386;20.434;2023-02-22T00:23:46;97469.88;;;8.00;47.13
63568;BME280;49715;42.386;20.434;2023-02-22T00:26:16;97471.25;;;7.94;46.89
63568;BME280;49715;42.386;20.434;2023-02-22T00:28:49;97483.44;;;7.95;46.97
63568;BME280;49715;42.386;20.434;2023-02-22T00:31:16;97470.56;;;7.92;47.16
63568;BME280;49715;42.386;20.434;2023-02-22T00:33:43;97469.00;;;7.90;47.01
63568;BME280;49715;42.386;20.434;2023-02-22T00:36:11;97483.38;;;7.86;46.96
63568;BME280;49715;42.386;20.434;2023-02-22T00:38:39;97476.84;;;7.80;47.11
63568;BME280;49715;42.386;20.434;2023-02-22T00:41:07;97476.69;;;7.72;47.45
63568;BME280;49715;42.386;20.434;2023-02-22T00:43:34;97468.91;;;7.61;47.42
63568;BME280;49715;42.386;20.434;2023-02-22T00:46:01;97473.31;;;7.60;47.27
63568;BME280;49715;42.386;20.434;2023-02-22T00:48:27;97460.97;;;7.51;47.74
63568;BME280;49715;42.386;20.434;2023-02-22T00:50:54;97469.00;;;7.49;47.61
63568;BME280;49715;42.386;20.434;2023-02-22T00:53:22;97465.25;;;7.42;47.78
63568;BME280;49715;42.386;20.434;2023-02-22T00:55:49;97460.38;;;7.38;48.03
63568;BME280;49715;42.386;20.434;2023-02-22T00:58:16;97465.69;;;7.27;47.98
63568;BME280;49715;42.386;20.434;2023-02-22T01:00:43;97466.59;;;7.16;48.23
63568;BME280;49715;42.386;20.434;2023-02-22T01:03:16;97463.72;;;6.98;48.51
63568;BME280;49715;42.386;20.434;2023-02-22T01:05:43;97473.28;;;6.88;48.64
63568;BME280;49715;42.386;20.434;2023-02-22T01:08:11;97465.94;;;6.82;48.72
63568;BME280;49715;42.386;20.434;2023-02-22T01:10:39;97460.38;;;6.75;48.92
63568;BME280;49715;42.386;20.434;2023-02-22T01:13:07;97464.78;;;6.75;49.02
63568;BME280;49715;42.386;20.434;2023-02-22T01:15:36;97455.50;;;6.70;49.03
63568;BME280;49715;42.386;20.434;2023-02-22T01:18:03;97460.03;;;6.68;49.21
63568;BME280;49715;42.386;20.434;2023-02-22T01:20:30;97449.50;;;6.59;49.49
63568;BME280;49715;42.386;20.434;2023-02-22T01:22:59;97454.16;;;6.55;49.42
63568;BME280;49715;42.386;20.434;2023-02-22T01:25:28;97460.06;;;6.57;49.42
63568;BME280;49715;42.386;20.434;2023-02-22T01:27:55;97458.28;;;6.58;49.45
63568;BME280;49715;42.386;20.434;2023-02-22T01:30:25;97460.22;;;6.56;49.40
63568;BME280;49715;42.386;20.434;2023-02-22T01:32:52;97459.38;;;6.55;49.57
63568;BME280;49715;42.386;20.434;2023-02-22T01:35:22;97453.41;;;6.53;49.58
63568;BME280;49715;42.386;20.434;2023-02-22T01:37:49;97452.59;;;6.53;49.60
63568;BME280;49715;42.386;20.434;2023-02-22T01:40:18;97453.09;;;6.47;51.09
63568;BME280;49715;42.386;20.434;2023-02-22T01:42:54;97453.09;;;6.47;49.70
63568;BME280;49715;42.386;20.434;2023-02-22T01:48:19;97444.09;;;6.39;49.48
63568;BME280;49715;42.386;20.434;2023-02-22T01:50:55;97446.94;;;6.36;49.72
63568;BME280;49715;42.386;20.434;2023-02-22T01:53:27;97445.66;;;6.31;49.76
63568;BME280;49715;42.386;20.434;2023-02-22T01:55:56;97446.25;;;6.23;49.93
63568;BME280;49715;42.386;20.434;2023-02-22T01:58:24;97440.56;;;6.18;50.00
63568;BME280;49715;42.386;20.434;2023-02-22T02:00:52;97444.84;;;6.19;50.04
63568;BME280;49715;42.386;20.434;2023-02-22T02:03:21;97442.34;;;6.17;50.11
63568;BME280;49715;42.386;20.434;2023-02-22T02:05:50;97443.91;;;6.09;50.04
63568;BME280;49715;42.386;20.434;2023-02-22T02:11:22;97443.56;;;6.02;50.37
63568;BME280;49715;42.386;20.434;2023-02-22T02:13:52;97449.88;;;6.00;50.24
63568;BME280;49715;42.386;20.434;2023-02-22T02:16:23;97443.47;;;5.92;50.57
63568;BME280;49715;42.386;20.434;2023-02-22T02:18:51;97452.16;;;5.93;50.60
63568;BME280;49715;42.386;20.434;2023-02-22T02:21:42;97443.81;;;5.88;50.81
63568;BME280;49715;42.386;20.434;2023-02-22T02:27:25;97436.44;;;5.71;50.71
63568;BME280;49715;42.386;20.434;2023-02-22T02:35:47;97453.59;;;5.52;51.21
63568;BME280;49715;42.386;20.434;2023-02-22T02:38:31;97458.19;;;5.49;51.40
63568;BME280;49715;42.386;20.434;2023-02-22T02:46:28;97451.19;;;5.38;51.50
63568;BME280;49715;42.386;20.434;2023-02-22T02:49:10;97453.19;;;5.34;51.69
63568;BME280;49715;42.386;20.434;2023-02-22T02:51:40;97443.94;;;5.30;51.67
63568;BME280;49715;42.386;20.434;2023-02-22T02:54:10;97459.13;;;5.25;51.64
63568;BME280;49715;42.386;20.434;2023-02-22T02:56:37;97450.69;;;5.22;51.75
63568;BME280;49715;42.386;20.434;2023-02-22T02:59:27;97453.88;;;5.14;52.29
63568;BME280;49715;42.386;20.434;2023-02-22T03:02:26;97454.09;;;5.11;52.48
63568;BME280;49715;42.386;20.434;2023-02-22T03:10:53;97463.03;;;5.08;52.56
63568;BME280;49715;42.386;20.434;2023-02-22T03:14:30;97463.03;;;5.08;52.70
63568;BME280;49715;42.386;20.434;2023-02-22T03:17:28;97457.81;;;5.08;52.12
63568;BME280;49715;42.386;20.434;2023-02-22T03:24:09;97472.66;;;5.08;52.03
63568;BME280;49715;42.386;20.434;2023-02-22T03:26:46;97470.59;;;5.00;52.18
63568;BME280;49715;42.386;20.434;2023-02-22T03:29:17;97476.16;;;4.96;52.08
63568;BME280;49715;42.386;20.434;2023-02-22T03:32:04;97470.78;;;4.86;52.57
63568;BME280;49715;42.386;20.434;2023-02-22T03:34:48;97472.44;;;4.87;52.39
63568;BME280;49715;42.386;20.434;2023-02-22T03:37:24;97475.19;;;4.85;52.32
63568;BME280;49715;42.386;20.434;2023-02-22T03:39:56;97466.25;;;4.77;52.51
63568;BME280;49715;42.386;20.434;2023-02-22T03:42:30;97472.09;;;4.80;52.54
63568;BME280;49715;42.386;20.434;2023-02-22T03:45:00;97459.25;;;4.77;52.41
63568;BME280;49715;42.386;20.434;2023-02-22T03:47:36;97452.56;;;4.73;52.58
63568;BME280;49715;42.386;20.434;2023-02-22T03:50:26;97447.47;;;4.72;52.93
63568;BME280;49715;42.386;20.434;2023-02-22T03:52:55;97458.66;;;4.74;52.52
63568;BME280;49715;42.386;20.434;2023-02-22T03:55:27;97455.31;;;4.72;52.76
63568;BME280;49715;42.386;20.434;2023-02-22T03:57:57;97460.66;;;4.70;52.63
63568;BME280;49715;42.386;20.434;2023-02-22T04:00:28;97459.09;;;4.68;52.73
63568;BME280;49715;42.386;20.434;2023-02-22T04:02:56;97458.38;;;4.65;52.89
63568;BME280;49715;42.386;20.434;2023-02-22T04:05:23;97446.72;;;4.58;52.98
63568;BME280;49715;42.386;20.434;2023-02-22T04:07:55;97445.72;;;4.48;52.90
63568;BME280;49715;42.386;20.434;2023-02-22T04:10:22;97448.13;;;4.51;52.96
63568;BME280;49715;42.386;20.434;2023-02-22T04:12:49;97450.34;;;4.45;53.01
63568;BME280;49715;42.386;20.434;2023-02-22T04:15:19;97451.72;;;4.37;53.31
63568;BME280;49715;42.386;20.434;2023-02-22T04:17:47;97455.25;;;4.25;53.28
63568;BME280;49715;42.386;20.434;2023-02-22T04:20:15;97464.38;;;4.07;55.27
63568;BME280;49715;42.386;20.434;2023-02-22T04:22:54;97469.41;;;3.97;53.87
63568;BME280;49715;42.386;20.434;2023-02-22T04:25:22;97471.41;;;3.94;53.95
63568;BME280;49715;42.386;20.434;2023-02-22T04:27:48;97473.94;;;3.82;55.93
63568;BME280;49715;42.386;20.434;2023-02-22T04:30:19;97460.38;;;3.77;53.96
63568;BME280;49715;42.386;20.434;2023-02-22T04:32:46;97447.88;;;3.70;53.95
63568;BME280;49715;42.386;20.434;2023-02-22T04:35:14;97453.09;;;3.70;54.15
63568;BME280;49715;42.386;20.434;2023-02-22T04:37:41;97447.69;;;3.60;54.22
63568;BME280;49715;42.386;20.434;2023-02-22T04:40:08;97460.13;;;3.56;54.62
63568;BME280;49715;42.386;20.434;2023-02-22T04:42:37;97465.84;;;3.49;54.76
63568;BME280;49715;42.386;20.434;2023-02-22T04:45:06;97468.38;;;3.38;54.60
63568;BME280;49715;42.386;20.434;2023-02-22T04:47:34;97463.97;;;3.25;55.01
63568;BME280;49715;42.386;20.434;2023-02-22T04:50:06;97455.75;;;3.19;55.07
63568;BME280;49715;42.386;20.434;2023-02-22T04:52:32;97471.16;;;3.22;55.12
63568;BME280;49715;42.386;20.434;2023-02-22T04:54:59;97456.41;;;3.22;55.33
63568;BME280;49715;42.386;20.434;2023-02-22T04:57:26;97469.81;;;3.29;55.28
63568;BME280;49715;42.386;20.434;2023-02-22T04:59:52;97458.56;;;3.28;55.15
63568;BME280;49715;42.386;20.434;2023-02-22T05:02:19;97466.78;;;3.35;54.85
63568;BME280;49715;42.386;20.434;2023-02-22T05:04:45;97463.16;;;3.38;54.94
63568;BME280;49715;42.386;20.434;2023-02-22T05:07:12;97474.09;;;3.43;54.98
63568;BME280;49715;42.386;20.434;2023-02-22T05:09:38;97472.44;;;3.42;55.08
63568;BME280;49715;42.386;20.434;2023-02-22T05:12:05;97464.63;;;3.42;55.03
63568;BME280;49715;42.386;20.434;2023-02-22T05:14:31;97476.47;;;3.46;54.93
63568;BME280;49715;42.386;20.434;2023-02-22T05:16:58;97476.69;;;3.43;54.90
63568;BME280;49715;42.386;20.434;2023-02-22T05:19:25;97480.13;;;3.43;56.81
63568;BME280;49715;42.386;20.434;2023-02-22T05:21:51;97479.91;;;3.46;54.93
63568;BME280;49715;42.386;20.434;2023-02-22T05:24:17;97483.03;;;3.51;54.94
63568;BME280;49715;42.386;20.434;2023-02-22T05:26:44;97483.91;;;3.52;54.90
63568;BME280;49715;42.386;20.434;2023-02-22T05:29:12;97483.03;;;3.51;54.59
63568;BME280;49715;42.386;20.434;2023-02-22T05:31:38;97488.34;;;3.50;56.69
63568;BME280;49715;42.386;20.434;2023-02-22T05:34:06;97479.91;;;3.46;54.81
63568;BME280;49715;42.386;20.434;2023-02-22T05:36:33;97482.84;;;3.42;54.79
63568;BME280;49715;42.386;20.434;2023-02-22T05:38:59;97478.38;;;3.44;54.98
63568;BME280;49715;42.386;20.434;2023-02-22T05:41:27;97476.69;;;3.43;54.65
63568;BME280;49715;42.386;20.434;2023-02-22T05:43:53;97485.97;;;3.47;54.80
63568;BME280;49715;42.386;20.434;2023-02-22T05:46:19;97493.06;;;3.45;55.30
63568;BME280;49715;42.386;20.434;2023-02-22T05:48:46;97500.88;;;3.45;54.91
63568;BME280;49715;42.386;20.434;2023-02-22T05:51:12;97508.06;;;3.41;55.11
63568;BME280;49715;42.386;20.434;2023-02-22T05:53:39;97502.34;;;3.23;55.26
63568;BME280;49715;42.386;20.434;2023-02-22T05:56:05;97527.09;;;3.16;55.65
63568;BME280;49715;42.386;20.434;2023-02-22T05:58:32;97526.81;;;3.08;55.88
63568;BME280;49715;42.386;20.434;2023-02-22T06:00:58;97532.19;;;3.05;55.92
63568;BME280;49715;42.386;20.434;2023-02-22T06:03:25;97532.91;;;3.07;56.12
63568;BME280;49715;42.386;20.434;2023-02-22T06:05:52;97533.97;;;3.04;56.34
63568;BME280;49715;42.386;20.434;2023-02-22T06:08:18;97535.94;;;3.01;56.40
63568;BME280;49715;42.386;20.434;2023-02-22T06:10:44;97538.25;;;3.05;56.38
63568;BME280;49715;42.386;20.434;2023-02-22T06:13:11;97536.06;;;3.12;56.42
63568;BME280;49715;42.386;20.434;2023-02-22T06:15:37;97537.31;;;3.19;56.50
63568;BME280;49715;42.386;20.434;2023-02-22T06:18:04;97536.38;;;3.20;56.31
63568;BME280;49715;42.386;20.434;2023-02-22T06:20:30;97547.66;;;3.33;56.39
63568;BME280;49715;42.386;20.434;2023-02-22T06:22:58;97544.53;;;3.41;56.24
63568;BME280;49715;42.386;20.434;2023-02-22T06:25:27;97549.88;;;3.52;56.34
63568;BME280;49715;42.386;20.434;2023-02-22T06:27:57;97548.19;;;3.64;56.10
63568;BME280;49715;42.386;20.434;2023-02-22T06:30:24;97548.41;;;3.74;55.96
63568;BME280;49715;42.386;20.434;2023-02-22T06:32:52;97550.25;;;3.84;56.11
63568;BME280;49715;42.386;20.434;2023-02-22T06:35:20;97547.84;;;3.94;55.85
63568;BME280;49715;42.386;20.434;2023-02-22T06:37:48;97542.22;;;4.00;56.12
63568;BME280;49715;42.386;20.434;2023-02-22T06:40:14;97544.09;;;4.11;55.89
63568;BME280;49715;42.386;20.434;2023-02-22T06:42:41;97553.19;;;4.29;55.68
63568;BME280;49715;42.386;20.434;2023-02-22T06:45:09;97560.88;;;4.44;55.41
63568;BME280;49715;42.386;20.434;2023-02-22T06:47:39;97556.47;;;4.57;55.42
63568;BME280;49715;42.386;20.434;2023-02-22T06:50:16;97549.63;;;4.67;55.41
63568;BME280;49715;42.386;20.434;2023-02-22T06:52:43;97550.63;;;4.77;55.24
63568;BME280;49715;42.386;20.434;2023-02-22T06:55:10;97552.38;;;4.89;55.18
63568;BME280;49715;42.386;20.434;2023-02-22T06:57:36;97548.00;;;5.01;55.08
63568;BME280;49715;42.386;20.434;2023-02-22T07:00:05;97551.50;;;5.13;54.67
63568;BME280;49715;42.386;20.434;2023-02-22T07:02:32;97541.56;;;5.18;54.86
63568;BME280;49715;42.386;20.434;2023-02-22T07:05:00;97556.19;;;5.32;54.57
63568;BME280;49715;42.386;20.434;2023-02-22T07:07:26;97536.50;;;5.39;54.62
63568;BME280;49715;42.386;20.434;2023-02-22T07:09:53;97545.31;;;5.49;54.47
63568;BME280;49715;42.386;20.434;2023-02-22T07:12:20;97547.22;;;5.58;54.39
63568;BME280;49715;42.386;20.434;2023-02-22T07:14:47;97548.19;;;5.68;54.36
63568;BME280;49715;42.386;20.434;2023-02-22T07:17:18;97527.38;;;5.67;54.23
63568;BME280;49715;42.386;20.434;2023-02-22T07:19:50;97530.22;;;5.75;54.11
63568;BME280;49715;42.386;20.434;2023-02-22T07:22:17;97540.28;;;5.92;54.02
63568;BME280;49715;42.386;20.434;2023-02-22T07:24:46;97518.38;;;5.71;54.21
63568;BME280;49715;42.386;20.434;2023-02-22T07:27:13;97492.44;;;5.68;54.25
63568;BME280;49715;42.386;20.434;2023-02-22T07:29:43;97501.59;;;5.85;54.12
63568;BME280;49715;42.386;20.434;2023-02-22T07:32:10;97510.88;;;6.00;53.93
63568;BME280;49715;42.386;20.434;2023-02-22T07:34:36;97533.72;;;6.21;53.83
63568;BME280;49715;42.386;20.434;2023-02-22T07:37:03;97537.38;;;6.29;54.81
63568;BME280;49715;42.386;20.434;2023-02-22T07:39:30;97508.38;;;6.21;54.06
63568;BME280;49715;42.386;20.434;2023-02-22T07:42:05;97511.06;;;6.42;53.88
63568;BME280;49715;42.386;20.434;2023-02-22T07:44:36;97535.16;;;6.68;53.78
63568;BME280;49715;42.386;20.434;2023-02-22T07:47:03;97525.50;;;6.80;53.63
63568;BME280;49715;42.386;20.434;2023-02-22T07:49:30;97537.13;;;6.87;54.34
63568;BME280;49715;42.386;20.434;2023-02-22T07:51:58;97527.53;;;6.97;53.36
63568;BME280;49715;42.386;20.434;2023-02-22T07:54:25;97501.63;;;6.94;53.21
63568;BME280;49715;42.386;20.434;2023-02-22T07:56:51;97538.78;;;7.20;53.17
63568;BME280;49715;42.386;20.434;2023-02-22T07:59:19;97530.16;;;7.29;53.36
63568;BME280;49715;42.386;20.434;2023-02-22T08:01:48;97517.25;;;7.37;53.29
63568;BME280;49715;42.386;20.434;2023-02-22T08:04:17;97517.03;;;7.50;52.98
63568;BME280;49715;42.386;20.434;2023-02-22T08:06:44;97521.50;;;7.59;52.96
63568;BME280;49715;42.386;20.434;2023-02-22T08:09:12;97507.56;;;7.59;52.88
63568;BME280;49715;42.386;20.434;2023-02-22T08:11:39;97518.69;;;7.72;52.86
63568;BME280;49715;42.386;20.434;2023-02-22T08:14:06;97512.91;;;7.78;53.07
63568;BME280;49715;42.386;20.434;2023-02-22T08:16:34;97506.16;;;7.85;52.98
63568;BME280;49715;42.386;20.434;2023-02-22T08:19:02;97500.00;;;7.96;53.01
63568;BME280;49715;42.386;20.434;2023-02-22T08:21:28;97507.50;;;8.10;53.00
63568;BME280;49715;42.386;20.434;2023-02-22T08:23:56;97507.13;;;8.24;52.81
63568;BME280;49715;42.386;20.434;2023-02-22T08:26:28;97503.47;;;8.37;52.97
63568;BME280;49715;42.386;20.434;2023-02-22T08:28:56;97510.13;;;8.50;52.91
63568;BME280;49715;42.386;20.434;2023-02-22T08:31:25;97504.50;;;8.65;52.68
63568;BME280;49715;42.386;20.434;2023-02-22T08:34:20;97496.19;;;8.79;52.33
63568;BME280;49715;42.386;20.434;2023-02-22T08:36:47;97501.72;;;8.95;52.19
63568;BME280;49715;42.386;20.434;2023-02-22T08:39:14;97504.22;;;9.07;52.64
63568;BME280;49715;42.386;20.434;2023-02-22T08:41:44;97502.53;;;9.25;51.86
63568;BME280;49715;42.386;20.434;2023-02-22T08:44:15;97487.75;;;9.24;51.72
63568;BME280;49715;42.386;20.434;2023-02-22T08:46:51;97509.44;;;9.45;51.67
63568;BME280;49715;42.386;20.434;2023-02-22T08:49:18;97476.47;;;9.41;51.62
63568;BME280;49715;42.386;20.434;2023-02-22T08:51:48;97483.91;;;9.55;51.56
63568;BME280;49715;42.386;20.434;2023-02-22T08:54:15;97493.41;;;9.76;51.63
63568;BME280;49715;42.386;20.434;2023-02-22T08:56:43;97494.31;;;9.94;51.42
63568;BME280;49715;42.386;20.434;2023-02-22T08:59:12;97482.25;;;10.01;51.32
63568;BME280;49715;42.386;20.434;2023-02-22T09:01:44;97487.53;;;10.19;51.10
63568;BME280;49715;42.386;20.434;2023-02-22T09:04:11;97487.41;;;10.30;50.90
63568;BME280;49715;42.386;20.434;2023-02-22T09:06:41;97486.38;;;10.41;50.64
63568;BME280;49715;42.386;20.434;2023-02-22T09:09:12;97488.88;;;10.61;50.38
63568;BME280;49715;42.386;20.434;2023-02-22T09:11:39;97481.19;;;10.67;50.44
63568;BME280;49715;42.386;20.434;2023-02-22T09:14:10;97478.09;;;10.72;50.27
63568;BME280;49715;42.386;20.434;2023-02-22T09:16:37;97456.56;;;10.76;50.18
63568;BME280;49715;42.386;20.434;2023-02-22T09:19:04;97484.78;;;11.02;49.84
63568;BME280;49715;42.386;20.434;2023-02-22T09:21:30;97476.22;;;11.18;49.71
63568;BME280;49715;42.386;20.434;2023-02-22T09:23:57;97469.50;;;11.23;49.43
63568;BME280;49715;42.386;20.434;2023-02-22T09:26:26;97471.72;;;11.36;49.34
63568;BME280;49715;42.386;20.434;2023-02-22T09:28:58;97453.94;;;11.38;49.31
63568;BME280;49715;42.386;20.434;2023-02-22T09:31:25;97444.91;;;11.49;49.18
63568;BME280;49715;42.386;20.434;2023-02-22T09:33:52;97482.69;;;11.75;49.18
63568;BME280;49715;42.386;20.434;2023-02-22T09:36:20;97463.28;;;11.84;49.01
63568;BME280;49715;42.386;20.434;2023-02-22T09:38:46;97454.25;;;11.95;48.77
63568;BME280;49715;42.386;20.434;2023-02-22T09:41:19;97461.44;;;12.11;48.77
63568;BME280;49715;42.386;20.434;2023-02-22T09:43:55;97458.84;;;12.27;48.62
63568;BME280;49715;42.386;20.434;2023-02-22T09:46:36;97446.81;;;12.33;48.26
63568;BME280;49715;42.386;20.434;2023-02-22T09:49:43;97455.94;;;12.47;47.38
63568;BME280;49715;42.386;20.434;2023-02-22T09:52:18;97453.13;;;12.56;47.67
63568;BME280;49715;42.386;20.434;2023-02-22T09:54:49;97438.59;;;12.60;47.62
63568;BME280;49715;42.386;20.434;2023-02-22T09:57:27;97442.56;;;12.73;47.34
63568;BME280;49715;42.386;20.434;2023-02-22T10:00:16;97453.19;;;12.89;46.86
63568;BME280;49715;42.386;20.434;2023-02-22T10:03:04;97434.00;;;12.95;46.87
63568;BME280;49715;42.386;20.434;2023-02-22T10:05:39;97420.63;;;13.05;46.72
63568;BME280;49715;42.386;20.434;2023-02-22T10:08:15;97402.41;;;13.10;46.50
63568;BME280;49715;42.386;20.434;2023-02-22T10:10:46;97440.13;;;13.45;46.38
63568;BME280;49715;42.386;20.434;2023-02-22T10:13:26;97437.59;;;13.51;45.76
63568;BME280;49715;42.386;20.434;2023-02-22T10:27:21;97410.25;;;14.14;44.75
63568;BME280;49715;42.386;20.434;2023-02-22T10:29:53;97401.44;;;14.22;44.81
63568;BME280;49715;42.386;20.434;2023-02-22T10:32:40;97394.78;;;14.26;44.49
63568;BME280;49715;42.386;20.434;2023-02-22T10:35:24;97396.03;;;14.38;44.18
63568;BME280;49715;42.386;20.434;2023-02-22T10:38:00;97393.13;;;14.56;44.32
63568;BME280;49715;42.386;20.434;2023-02-22T10:40:30;97381.22;;;14.75;44.18
63568;BME280;49715;42.386;20.434;2023-02-22T10:43:07;97385.09;;;14.87;42.56
63568;BME280;49715;42.386;20.434;2023-02-22T10:45:43;97375.72;;;15.00;43.53
63568;BME280;49715;42.386;20.434;2023-02-22T10:48:13;97366.28;;;15.12;43.06
63568;BME280;49715;42.386;20.434;2023-02-22T10:50:44;97365.50;;;15.26;42.98
63568;BME280;49715;42.386;20.434;2023-02-22T10:53:13;97363.03;;;15.39;42.62
63568;BME280;49715;42.386;20.434;2023-02-22T10:56:17;97365.50;;;15.56;41.78
63568;BME280;49715;42.386;20.434;2023-02-22T10:58:52;97351.81;;;15.67;42.28
63568;BME280;49715;42.386;20.434;2023-02-22T11:04:11;97344.47;;;15.84;40.87
63568;BME280;49715;42.386;20.434;2023-02-22T11:06:45;97343.97;;;15.95;41.54
63568;BME280;49715;42.386;20.434;2023-02-22T11:09:19;97322.59;;;16.03;40.86
63568;BME280;49715;42.386;20.434;2023-02-22T11:12:07;97326.03;;;16.18;40.01
63568;BME280;49715;42.386;20.434;2023-02-22T11:14:35;97338.72;;;16.38;40.85
63568;BME280;49715;42.386;20.434;2023-02-22T11:17:05;97327.41;;;16.51;40.46
63568;BME280;49715;42.386;20.434;2023-02-22T11:19:33;97323.59;;;16.60;40.39
63568;BME280;49715;42.386;20.434;2023-02-22T11:24:50;97308.28;;;16.68;38.65
63568;BME280;49715;42.386;20.434;2023-02-22T11:27:38;97308.94;;;16.70;38.02
63568;BME280;49715;42.386;20.434;2023-02-22T11:32:46;97298.00;;;17.08;39.23
63568;BME280;49715;42.386;20.434;2023-02-22T11:35:31;97274.75;;;17.23;37.83
63568;BME280;49715;42.386;20.434;2023-02-22T11:38:15;97288.41;;;17.55;38.11
63568;BME280;49715;42.386;20.434;2023-02-22T11:40:43;97294.25;;;17.72;38.33
63568;BME280;49715;42.386;20.434;2023-02-22T11:43:14;97283.66;;;17.85;38.14
63568;BME280;49715;42.386;20.434;2023-02-22T11:48:28;97270.78;;;18.09;37.87
63568;BME280;49715;42.386;20.434;2023-02-22T12:08:00;97250.50;;;19.20;36.56
63568;BME280;49715;42.386;20.434;2023-02-22T12:10:43;97245.56;;;19.17;34.43
63568;BME280;49715;42.386;20.434;2023-02-22T12:14:05;97244.50;;;19.32;35.83
63568;BME280;49715;42.386;20.434;2023-02-22T12:19:32;97240.50;;;19.67;35.33
63568;BME280;49715;42.386;20.434;2023-02-22T12:22:07;97221.69;;;19.80;36.04
63568;BME280;49715;42.386;20.434;2023-02-22T12:24:56;97229.59;;;20.07;34.06
63568;BME280;49715;42.386;20.434;2023-02-22T12:30:21;97217.44;;;20.36;35.35
63568;BME280;49715;42.386;20.434;2023-02-22T12:32:52;97215.41;;;20.31;35.16
63568;BME280;49715;42.386;20.434;2023-02-22T12:38:02;97206.22;;;20.52;34.86
63568;BME280;49715;42.386;20.434;2023-02-22T12:40:43;97198.72;;;20.61;33.29
63568;BME280;49715;42.386;20.434;2023-02-22T12:46:17;97192.97;;;20.82;33.07
63568;BME280;49715;42.386;20.434;2023-02-22T12:48:54;97190.72;;;20.98;33.80
63568;BME280;49715;42.386;20.434;2023-02-22T12:51:42;97180.31;;;21.08;32.33
63568;BME280;49715;42.386;20.434;2023-02-22T12:59:46;97198.13;;;21.57;32.75
63568;BME280;49715;42.386;20.434;2023-02-22T13:02:29;97185.69;;;21.63;32.40
63568;BME280;49715;42.386;20.434;2023-02-22T13:05:01;97188.41;;;21.75;32.35
63568;BME280;49715;42.386;20.434;2023-02-22T13:07:35;97181.66;;;21.84;32.12
63568;BME280;49715;42.386;20.434;2023-02-22T13:10:21;97186.94;;;21.91;31.95
63568;BME280;49715;42.386;20.434;2023-02-22T13:29:50;97141.00;;;22.10;29.22
63568;BME280;49715;42.386;20.434;2023-02-22T13:32:32;97158.59;;;22.36;29.88
63568;BME280;49715;42.386;20.434;2023-02-22T13:35:45;97163.88;;;22.55;26.80
63568;BME280;49715;42.386;20.434;2023-02-22T13:52:29;97144.13;;;22.84;29.90
63568;BME280;49715;42.386;20.434;2023-02-22T13:55:06;97145.66;;;22.92;28.29
63568;BME280;49715;42.386;20.434;2023-02-22T13:57:39;97142.84;;;22.99;29.62
63568;BME280;49715;42.386;20.434;2023-02-22T14:05:57;97146.69;;;23.03;26.67
63568;BME280;49715;42.386;20.434;2023-02-22T14:10:55;97138.59;;;23.15;29.25
63568;BME280;49715;42.386;20.434;2023-02-22T14:13:27;97136.69;;;23.27;29.24
63568;BME280;49715;42.386;20.434;2023-02-22T14:18:44;97135.41;;;23.29;28.43
63568;BME280;49715;42.386;20.434;2023-02-22T14:23:46;97126.09;;;23.20;28.58
63568;BME280;49715;42.386;20.434;2023-02-22T14:26:31;97134.91;;;23.32;28.18
63568;BME280;49715;42.386;20.434;2023-02-22T14:34:46;97138.00;;;23.24;28.06
63568;BME280;49715;42.386;20.434;2023-02-22T14:37:18;97127.91;;;23.31;28.74
63568;BME280;49715;42.386;20.434;2023-02-22T14:39:58;97109.47;;;23.23;27.49
63568;BME280;49715;42.386;20.434;2023-02-22T14:42:36;97124.44;;;23.19;28.59
63568;BME280;49715;42.386;20.434;2023-02-22T14:50:18;97117.38;;;22.66;28.37
63568;BME280;49715;42.386;20.434;2023-02-22T14:53:26;97114.13;;;22.52;27.84
63568;BME280;49715;42.386;20.434;2023-02-22T14:58:40;97108.50;;;22.54;27.77
63568;BME280;49715;42.386;20.434;2023-02-22T15:01:26;97111.09;;;22.60;28.97
63568;BME280;49715;42.386;20.434;2023-02-22T15:04:23;97097.31;;;22.57;27.52
63568;BME280;49715;42.386;20.434;2023-02-22T15:06:54;97096.94;;;22.53;29.40
63568;BME280;49715;42.386;20.434;2023-02-22T15:09:29;97106.53;;;22.61;29.11
63568;BME280;49715;42.386;20.434;2023-02-22T15:14:33;97096.38;;;22.51;29.48
63568;BME280;49715;42.386;20.434;2023-02-22T15:17:22;97097.41;;;22.39;29.26
63568;BME280;49715;42.386;20.434;2023-02-22T15:19:50;97085.59;;;22.04;29.22
63568;BME280;49715;42.386;20.434;2023-02-22T15:22:21;97095.59;;;21.85;29.09
63568;BME280;49715;42.386;20.434;2023-02-22T15:25:00;97107.28;;;21.49;28.80
63568;BME280;49715;42.386;20.434;2023-02-22T15:27:27;97104.47;;;21.26;29.04
63568;BME280;49715;42.386;20.434;2023-02-22T15:29:58;97100.56;;;20.92;29.33
63568;BME280;49715;42.386;20.434;2023-02-22T15:32:34;97095.84;;;20.69;29.42
63568;BME280;49715;42.386;20.434;2023-02-22T15:35:12;97100.66;;;20.42;29.36
63568;BME280;49715;42.386;20.434;2023-02-22T15:37:39;97096.13;;;20.17;29.74
63568;BME280;49715;42.386;20.434;2023-02-22T15:40:08;97099.38;;;20.01;29.87
63568;BME280;49715;42.386;20.434;2023-02-22T15:42:51;97096.06;;;19.74;29.68
63568;BME280;49715;42.386;20.434;2023-02-22T15:45:24;97095.56;;;19.52;30.11
63568;BME280;49715;42.386;20.434;2023-02-22T15:47:52;97097.91;;;19.35;30.08
63568;BME280;49715;42.386;20.434;2023-02-22T15:50:30;97086.34;;;19.10;30.22